sensor_id;sensor_type;location;lat;lon;timestamp;temperature;humidity
82039;DHT22;71610;42.628;23.378;2024-01-25T00:01:34;23.60;27.60
82039;DHT22;71610;42.628;23.378;2024-01-25T00:04:00;23.60;27.60
82039;DHT22;71610;42.628;23.378;2024-01-25T00:06:26;23.60;27.60
82039;DHT22;71610;42.628;23.378;2024-01-25T00:08:52;23.60;27.60
82039;DHT22;71610;42.628;23.378;2024-01-25T00:11:18;23.60;27.60
82039;DHT22;71610;42.628;23.378;2024-01-25T00:13:43;23.60;27.60
82039;DHT22;71610;42.628;23.378;2024-01-25T00:16:09;23.60;27.60
82039;DHT22;71610;42.628;23.378;2024-01-25T00:18:35;23.60;27.60
82039;DHT22;71610;42.628;23.378;2024-01-25T00:21:01;23.60;27.60
82039;DHT22;71610;42.628;23.378;2024-01-25T00:23:27;23.60;27.60
82039;DHT22;71610;42.628;23.378;2024-01-25T00:25:53;23.60;27.60
82039;DHT22;71610;42.628;23.378;2024-01-25T00:28:19;23.60;27.60
82039;DHT22;71610;42.628;23.378;2024-01-25T00:30:44;23.60;27.60
82039;DHT22;71610;42.628;23.378;2024-01-25T00:33:10;23.60;27.60
82039;DHT22;71610;42.628;23.378;2024-01-25T00:35:36;23.60;27.60
82039;DHT22;71610;42.628;23.378;2024-01-25T00:38:02;23.60;27.60
82039;DHT22;71610;42.628;23.378;2024-01-25T00:40:28;23.60;27.60
82039;DHT22;71610;42.628;23.378;2024-01-25T00:42:54;23.60;27.60
82039;DHT22;71610;42.628;23.378;2024-01-25T00:45:21;23.60;27.60
82039;DHT22;71610;42.628;23.378;2024-01-25T00:47:49;23.60;27.60
82039;DHT22;71610;42.628;23.378;2024-01-25T00:50:16;23.60;27.60
82039;DHT22;71610;42.628;23.378;2024-01-25T00:52:47;23.60;27.60
82039;DHT22;71610;42.628;23.378;2024-01-25T00:55:16;23.60;27.60
82039;DHT22;71610;42.628;23.378;2024-01-25T00:57:42;23.60;27.60
82039;DHT22;71610;42.628;23.378;2024-01-25T01:00:08;23.60;27.60
82039;DHT22;71610;42.628;23.378;2024-01-25T01:02:44;23.60;27.60
82039;DHT22;71610;42.628;23.378;2024-01-25T01:05:11;23.60;27.60
82039;DHT22;71610;42.628;23.378;2024-01-25T01:07:38;23.60;27.60
82039;DHT22;71610;42.628;23.378;2024-01-25T01:10:07;23.50;27.50
82039;DHT22;71610;42.628;23.378;2024-01-25T01:12:34;23.50;27.50
82039;DHT22;71610;42.628;23.378;2024-01-25T01:14:59;23.60;27.60
82039;DHT22;71610;42.628;23.378;2024-01-25T01:17:25;23.60;28.40
82039;DHT22;71610;42.628;23.378;2024-01-25T01:19:51;23.60;27.60
82039;DHT22;71610;42.628;23.378;2024-01-25T01:22:17;23.60;27.60
82039;DHT22;71610;42.628;23.378;2024-01-25T01:24:43;23.50;27.50
82039;DHT22;71610;42.628;23.378;2024-01-25T01:27:08;23.50;27.50
82039;DHT22;71610;42.628;23.378;2024-01-25T01:29:34;23.60;27.60
82039;DHT22;71610;42.628;23.378;2024-01-25T01:32:00;23.60;27.60
82039;DHT22;71610;42.628;23.378;2024-01-25T01:34:25;23.60;27.60
82039;DHT22;71610;42.628;23.378;2024-01-25T01:36:51;23.60;27.60
82039;DHT22;71610;42.628;23.378;2024-01-25T01:39:17;23.60;27.60
82039;DHT22;71610;42.628;23.378;2024-01-25T01:41:47;23.50;27.50
82039;DHT22;71610;42.628;23.378;2024-01-25T01:44:13;23.50;27.50
82039;DHT22;71610;42.628;23.378;2024-01-25T01:46:39;23.50;27.50
82039;DHT22;71610;42.628;23.378;2024-01-25T01:49:07;23.50;27.50
82039;DHT22;71610;42.628;23.378;2024-01-25T01:51:35;23.50;27.50
82039;DHT22;71610;42.628;23.378;2024-01-25T01:54:02;23.50;27.50
82039;DHT22;71610;42.628;23.378;2024-01-25T01:56:29;23.60;27.50
82039;DHT22;71610;42.628;23.378;2024-01-25T01:58:58;23.50;27.50
82039;DHT22;71610;42.628;23.378;2024-01-25T02:01:25;23.60;27.50
82039;DHT22;71610;42.628;23.378;2024-01-25T02:03:51;23.50;28.30
82039;DHT22;71610;42.628;23.378;2024-01-25T02:06:18;23.60;27.50
82039;DHT22;71610;42.628;23.378;2024-01-25T02:08:43;23.50;27.50
82039;DHT22;71610;42.628;23.378;2024-01-25T02:11:12;23.50;27.40
82039;DHT22;71610;42.628;23.378;2024-01-25T02:13:38;23.60;27.50
82039;DHT22;71610;42.628;23.378;2024-01-25T02:16:05;23.60;27.40
82039;DHT22;71610;42.628;23.378;2024-01-25T02:18:31;23.60;27.40
82039;DHT22;71610;42.628;23.378;2024-01-25T02:20:57;23.50;27.40
82039;DHT22;71610;42.628;23.378;2024-01-25T02:23:23;23.50;27.30
82039;DHT22;71610;42.628;23.378;2024-01-25T02:25:49;23.60;27.40
82039;DHT22;71610;42.628;23.378;2024-01-25T02:28:14;23.50;27.30
82039;DHT22;71610;42.628;23.378;2024-01-25T02:30:40;23.50;27.30
82039;DHT22;71610;42.628;23.378;2024-01-25T02:33:06;23.60;27.40
82039;DHT22;71610;42.628;23.378;2024-01-25T02:35:31;23.60;27.30
82039;DHT22;71610;42.628;23.378;2024-01-25T02:37:57;23.60;27.30
82039;DHT22;71610;42.628;23.378;2024-01-25T02:40:23;23.60;27.30
82039;DHT22;71610;42.628;23.378;2024-01-25T02:45:33;23.60;27.30
82039;DHT22;71610;42.628;23.378;2024-01-25T02:47:59;23.60;27.30
82039;DHT22;71610;42.628;23.378;2024-01-25T02:50:27;23.60;27.20
82039;DHT22;71610;42.628;23.378;2024-01-25T02:52:53;23.60;27.30
82039;DHT22;71610;42.628;23.378;2024-01-25T02:55:19;23.60;27.20
82039;DHT22;71610;42.628;23.378;2024-01-25T02:57:45;23.60;27.20
82039;DHT22;71610;42.628;23.378;2024-01-25T03:00:11;23.60;27.10
82039;DHT22;71610;42.628;23.378;2024-01-25T03:02:37;23.60;27.20
82039;DHT22;71610;42.628;23.378;2024-01-25T03:05:03;23.60;27.10
82039;DHT22;71610;42.628;23.378;2024-01-25T03:07:29;23.60;27.10
82039;DHT22;71610;42.628;23.378;2024-01-25T03:09:55;23.60;27.10
82039;DHT22;71610;42.628;23.378;2024-01-25T03:12:20;23.60;27.10
82039;DHT22;71610;42.628;23.378;2024-01-25T03:14:47;23.60;27.10
82039;DHT22;71610;42.628;23.378;2024-01-25T03:17:13;23.60;27.10
82039;DHT22;71610;42.628;23.378;2024-01-25T03:19:39;23.70;27.10
82039;DHT22;71610;42.628;23.378;2024-01-25T03:22:04;23.60;27.00
82039;DHT22;71610;42.628;23.378;2024-01-25T03:24:30;23.60;27.10
82039;DHT22;71610;42.628;23.378;2024-01-25T03:26:56;23.60;27.10
82039;DHT22;71610;42.628;23.378;2024-01-25T03:29:21;23.60;27.00
82039;DHT22;71610;42.628;23.378;2024-01-25T03:31:47;23.60;27.10
82039;DHT22;71610;42.628;23.378;2024-01-25T03:34:13;23.70;27.10
82039;DHT22;71610;42.628;23.378;2024-01-25T03:36:40;23.70;27.10
82039;DHT22;71610;42.628;23.378;2024-01-25T03:39:06;23.60;27.10
82039;DHT22;71610;42.628;23.378;2024-01-25T03:41:32;23.70;27.10
82039;DHT22;71610;42.628;23.378;2024-01-25T03:43:58;23.70;27.00
82039;DHT22;71610;42.628;23.378;2024-01-25T03:46:24;23.70;27.00
82039;DHT22;71610;42.628;23.378;2024-01-25T03:48:50;23.70;27.00
82039;DHT22;71610;42.628;23.378;2024-01-25T03:51:15;23.70;27.00
82039;DHT22;71610;42.628;23.378;2024-01-25T03:53:41;23.70;27.00
82039;DHT22;71610;42.628;23.378;2024-01-25T03:56:14;23.70;27.00
82039;DHT22;71610;42.628;23.378;2024-01-25T03:58:43;23.70;27.00
82039;DHT22;71610;42.628;23.378;2024-01-25T04:01:09;23.70;27.00
82039;DHT22;71610;42.628;23.378;2024-01-25T04:03:35;23.70;27.00
82039;DHT22;71610;42.628;23.378;2024-01-25T04:06:00;23.70;27.00
82039;DHT22;71610;42.628;23.378;2024-01-25T04:08:27;23.70;27.00
82039;DHT22;71610;42.628;23.378;2024-01-25T04:10:53;23.70;27.00
82039;DHT22;71610;42.628;23.378;2024-01-25T04:13:18;23.70;26.90
82039;DHT22;71610;42.628;23.378;2024-01-25T04:15:44;23.70;27.00
82039;DHT22;71610;42.628;23.378;2024-01-25T04:18:10;23.80;27.00
82039;DHT22;71610;42.628;23.378;2024-01-25T04:20:35;23.80;27.00
82039;DHT22;71610;42.628;23.378;2024-01-25T04:23:01;23.80;27.00
82039;DHT22;71610;42.628;23.378;2024-01-25T04:25:27;23.80;26.90
82039;DHT22;71610;42.628;23.378;2024-01-25T04:27:53;23.80;26.90
82039;DHT22;71610;42.628;23.378;2024-01-25T04:30:19;23.80;26.90
82039;DHT22;71610;42.628;23.378;2024-01-25T04:32:44;23.80;26.90
82039;DHT22;71610;42.628;23.378;2024-01-25T04:35:10;23.80;26.90
82039;DHT22;71610;42.628;23.378;2024-01-25T04:37:36;23.80;26.90
82039;DHT22;71610;42.628;23.378;2024-01-25T04:40:02;23.70;26.80
82039;DHT22;71610;42.628;23.378;2024-01-25T04:42:28;23.80;26.90
82039;DHT22;71610;42.628;23.378;2024-01-25T04:44:54;23.70;26.80
82039;DHT22;71610;42.628;23.378;2024-01-25T04:47:20;23.80;26.90
82039;DHT22;71610;42.628;23.378;2024-01-25T04:49:46;23.80;26.90
82039;DHT22;71610;42.628;23.378;2024-01-25T04:52:12;23.80;26.80
82039;DHT22;71610;42.628;23.378;2024-01-25T04:54:37;23.80;26.80
82039;DHT22;71610;42.628;23.378;2024-01-25T04:57:03;23.80;26.80
82039;DHT22;71610;42.628;23.378;2024-01-25T04:59:32;23.80;26.80
82039;DHT22;71610;42.628;23.378;2024-01-25T05:01:59;23.70;26.70
82039;DHT22;71610;42.628;23.378;2024-01-25T05:04:25;23.80;26.80
82039;DHT22;71610;42.628;23.378;2024-01-25T05:06:50;23.80;26.70
82039;DHT22;71610;42.628;23.378;2024-01-25T05:09:16;23.80;26.70
82039;DHT22;71610;42.628;23.378;2024-01-25T05:11:42;23.80;26.70
82039;DHT22;71610;42.628;23.378;2024-01-25T05:14:08;23.80;26.70
82039;DHT22;71610;42.628;23.378;2024-01-25T05:16:33;23.80;26.60
82039;DHT22;71610;42.628;23.378;2024-01-25T05:19:00;23.60;23.90
82039;DHT22;71610;42.628;23.378;2024-01-25T05:21:27;23.50;23.60
82039;DHT22;71610;42.628;23.378;2024-01-25T05:23:52;23.40;23.50
82039;DHT22;71610;42.628;23.378;2024-01-25T05:26:18;23.30;24.40
82039;DHT22;71610;42.628;23.378;2024-01-25T05:28:44;23.20;25.60
82039;DHT22;71610;42.628;23.378;2024-01-25T05:31:10;23.20;26.30
82039;DHT22;71610;42.628;23.378;2024-01-25T05:33:41;23.10;26.50
82039;DHT22;71610;42.628;23.378;2024-01-25T05:36:07;23.10;26.70
82039;DHT22;71610;42.628;23.378;2024-01-25T05:38:33;23.10;26.60
82039;DHT22;71610;42.628;23.378;2024-01-25T05:40:58;23.10;26.40
82039;DHT22;71610;42.628;23.378;2024-01-25T05:43:25;23.10;26.50
82039;DHT22;71610;42.628;23.378;2024-01-25T05:45:50;23.10;26.50
82039;DHT22;71610;42.628;23.378;2024-01-25T05:48:16;23.10;26.40
82039;DHT22;71610;42.628;23.378;2024-01-25T05:50:42;23.10;26.30
82039;DHT22;71610;42.628;23.378;2024-01-25T05:53:08;23.10;26.30
82039;DHT22;71610;42.628;23.378;2024-01-25T05:55:33;23.20;26.20
82039;DHT22;71610;42.628;23.378;2024-01-25T05:57:59;23.20;26.40
82039;DHT22;71610;42.628;23.378;2024-01-25T06:00:25;23.20;26.60
82039;DHT22;71610;42.628;23.378;2024-01-25T06:02:51;23.20;26.60
82039;DHT22;71610;42.628;23.378;2024-01-25T06:05:16;23.30;26.60
82039;DHT22;71610;42.628;23.378;2024-01-25T06:07:42;23.30;26.60
82039;DHT22;71610;42.628;23.378;2024-01-25T06:10:08;23.30;26.70
82039;DHT22;71610;42.628;23.378;2024-01-25T06:12:34;23.30;26.70
82039;DHT22;71610;42.628;23.378;2024-01-25T06:15:01;23.40;26.70
82039;DHT22;71610;42.628;23.378;2024-01-25T06:17:27;23.40;26.50
82039;DHT22;71610;42.628;23.378;2024-01-25T06:19:52;23.40;26.30
82039;DHT22;71610;42.628;23.378;2024-01-25T06:22:18;23.40;26.40
82039;DHT22;71610;42.628;23.378;2024-01-25T06:24:44;23.50;26.40
82039;DHT22;71610;42.628;23.378;2024-01-25T06:27:10;23.50;26.20
82039;DHT22;71610;42.628;23.378;2024-01-25T06:29:36;23.50;25.90
82039;DHT22;71610;42.628;23.378;2024-01-25T06:32:02;23.50;25.80
82039;DHT22;71610;42.628;23.378;2024-01-25T06:34:29;23.50;25.90
82039;DHT22;71610;42.628;23.378;2024-01-25T06:36:54;23.50;25.80
82039;DHT22;71610;42.628;23.378;2024-01-25T06:39:20;23.60;25.70
82039;DHT22;71610;42.628;23.378;2024-01-25T06:41:46;23.60;25.50
82039;DHT22;71610;42.628;23.378;2024-01-25T06:44:12;23.60;25.60
82039;DHT22;71610;42.628;23.378;2024-01-25T06:46:38;23.60;25.60
82039;DHT22;71610;42.628;23.378;2024-01-25T06:49:04;23.60;25.40
82039;DHT22;71610;42.628;23.378;2024-01-25T06:51:30;23.60;25.60
82039;DHT22;71610;42.628;23.378;2024-01-25T06:53:56;23.60;26.30
82039;DHT22;71610;42.628;23.378;2024-01-25T06:56:21;23.60;26.70
82039;DHT22;71610;42.628;23.378;2024-01-25T06:58:47;23.70;27.20
82039;DHT22;71610;42.628;23.378;2024-01-25T07:01:13;23.70;27.20
82039;DHT22;71610;42.628;23.378;2024-01-25T07:03:39;23.70;26.50
82039;DHT22;71610;42.628;23.378;2024-01-25T07:06:05;23.70;25.50
82039;DHT22;71610;42.628;23.378;2024-01-25T07:08:31;23.70;24.90
82039;DHT22;71610;42.628;23.378;2024-01-25T07:10:56;23.70;24.70
82039;DHT22;71610;42.628;23.378;2024-01-25T07:13:25;23.70;24.90
82039;DHT22;71610;42.628;23.378;2024-01-25T07:15:50;23.70;25.00
82039;DHT22;71610;42.628;23.378;2024-01-25T07:18:16;23.70;25.00
82039;DHT22;71610;42.628;23.378;2024-01-25T07:20:42;23.70;25.10
82039;DHT22;71610;42.628;23.378;2024-01-25T07:23:08;23.80;25.00
82039;DHT22;71610;42.628;23.378;2024-01-25T07:25:34;23.80;25.10
82039;DHT22;71610;42.628;23.378;2024-01-25T07:27:59;23.80;25.30
82039;DHT22;71610;42.628;23.378;2024-01-25T07:30:25;23.80;25.50
82039;DHT22;71610;42.628;23.378;2024-01-25T07:32:51;23.80;25.50
82039;DHT22;71610;42.628;23.378;2024-01-25T07:35:17;23.80;25.50
82039;DHT22;71610;42.628;23.378;2024-01-25T07:37:43;23.90;25.40
82039;DHT22;71610;42.628;23.378;2024-01-25T07:40:09;23.90;25.40
82039;DHT22;71610;42.628;23.378;2024-01-25T07:42:35;23.90;25.40
82039;DHT22;71610;42.628;23.378;2024-01-25T07:45:01;23.90;25.50
82039;DHT22;71610;42.628;23.378;2024-01-25T07:47:27;23.90;25.50
82039;DHT22;71610;42.628;23.378;2024-01-25T07:49:53;23.90;25.60
82039;DHT22;71610;42.628;23.378;2024-01-25T07:52:18;24.00;25.80
82039;DHT22;71610;42.628;23.378;2024-01-25T07:54:44;24.00;25.80
82039;DHT22;71610;42.628;23.378;2024-01-25T07:57:10;24.00;26.00
82039;DHT22;71610;42.628;23.378;2024-01-25T07:59:36;24.00;26.30
82039;DHT22;71610;42.628;23.378;2024-01-25T08:02:02;24.00;26.40
82039;DHT22;71610;42.628;23.378;2024-01-25T08:04:27;24.00;26.50
82039;DHT22;71610;42.628;23.378;2024-01-25T08:06:53;24.00;26.50
82039;DHT22;71610;42.628;23.378;2024-01-25T08:09:19;24.00;26.60
82039;DHT22;71610;42.628;23.378;2024-01-25T08:11:45;24.10;26.80
82039;DHT22;71610;42.628;23.378;2024-01-25T08:14:12;24.10;26.80
82039;DHT22;71610;42.628;23.378;2024-01-25T08:16:38;24.10;26.70
82039;DHT22;71610;42.628;23.378;2024-01-25T08:19:04;24.10;26.70
82039;DHT22;71610;42.628;23.378;2024-01-25T08:21:30;24.10;26.60
82039;DHT22;71610;42.628;23.378;2024-01-25T08:23:56;24.10;26.50
82039;DHT22;71610;42.628;23.378;2024-01-25T08:26:21;24.10;26.20
82039;DHT22;71610;42.628;23.378;2024-01-25T08:28:47;24.10;26.10
82039;DHT22;71610;42.628;23.378;2024-01-25T08:31:13;24.10;25.90
82039;DHT22;71610;42.628;23.378;2024-01-25T08:33:40;24.10;25.70
82039;DHT22;71610;42.628;23.378;2024-01-25T08:36:16;24.10;25.70
82039;DHT22;71610;42.628;23.378;2024-01-25T08:38:42;24.10;25.80
82039;DHT22;71610;42.628;23.378;2024-01-25T08:41:08;24.10;26.10
82039;DHT22;71610;42.628;23.378;2024-01-25T08:43:36;24.10;26.40
82039;DHT22;71610;42.628;23.378;2024-01-25T08:46:02;24.10;26.60
82039;DHT22;71610;42.628;23.378;2024-01-25T08:48:28;24.10;26.60
82039;DHT22;71610;42.628;23.378;2024-01-25T08:50:54;24.10;26.30
82039;DHT22;71610;42.628;23.378;2024-01-25T08:53:20;24.10;26.20
82039;DHT22;71610;42.628;23.378;2024-01-25T08:55:53;24.10;26.20
82039;DHT22;71610;42.628;23.378;2024-01-25T08:58:19;24.10;26.30
82039;DHT22;71610;42.628;23.378;2024-01-25T09:00:45;24.10;26.40
82039;DHT22;71610;42.628;23.378;2024-01-25T09:03:11;24.10;26.00
82039;DHT22;71610;42.628;23.378;2024-01-25T09:05:37;24.10;26.00
82039;DHT22;71610;42.628;23.378;2024-01-25T09:08:06;24.10;26.00
82039;DHT22;71610;42.628;23.378;2024-01-25T09:10:32;24.10;25.60
82039;DHT22;71610;42.628;23.378;2024-01-25T09:12:58;24.10;25.20
82039;DHT22;71610;42.628;23.378;2024-01-25T09:15:24;24.10;25.10
82039;DHT22;71610;42.628;23.378;2024-01-25T09:17:49;24.00;25.20
82039;DHT22;71610;42.628;23.378;2024-01-25T09:20:15;24.10;25.40
82039;DHT22;71610;42.628;23.378;2024-01-25T09:22:41;24.10;25.50
82039;DHT22;71610;42.628;23.378;2024-01-25T09:25:07;24.10;26.70
82039;DHT22;71610;42.628;23.378;2024-01-25T09:27:33;24.10;25.70
82039;DHT22;71610;42.628;23.378;2024-01-25T09:29:58;24.10;25.80
82039;DHT22;71610;42.628;23.378;2024-01-25T09:32:24;24.10;25.80
82039;DHT22;71610;42.628;23.378;2024-01-25T09:34:50;24.10;25.70
82039;DHT22;71610;42.628;23.378;2024-01-25T09:37:16;24.10;25.60
82039;DHT22;71610;42.628;23.378;2024-01-25T09:39:43;24.10;26.00
82039;DHT22;71610;42.628;23.378;2024-01-25T09:42:10;24.10;26.40
82039;DHT22;71610;42.628;23.378;2024-01-25T09:44:38;24.10;26.60
82039;DHT22;71610;42.628;23.378;2024-01-25T09:47:05;24.10;26.50
82039;DHT22;71610;42.628;23.378;2024-01-25T09:49:34;24.10;26.50
82039;DHT22;71610;42.628;23.378;2024-01-25T09:52:02;24.10;26.30
82039;DHT22;71610;42.628;23.378;2024-01-25T09:54:35;24.10;26.30
82039;DHT22;71610;42.628;23.378;2024-01-25T09:57:16;24.20;26.30
82039;DHT22;71610;42.628;23.378;2024-01-25T09:59:45;24.10;26.20
82039;DHT22;71610;42.628;23.378;2024-01-25T10:02:11;24.10;26.00
82039;DHT22;71610;42.628;23.378;2024-01-25T10:04:37;24.10;25.70
82039;DHT22;71610;42.628;23.378;2024-01-25T10:07:03;24.10;26.40
82039;DHT22;71610;42.628;23.378;2024-01-25T10:09:40;24.10;25.60
82039;DHT22;71610;42.628;23.378;2024-01-25T10:12:07;24.10;25.70
82039;DHT22;71610;42.628;23.378;2024-01-25T10:14:32;24.10;25.70
82039;DHT22;71610;42.628;23.378;2024-01-25T10:16:58;24.10;25.80
82039;DHT22;71610;42.628;23.378;2024-01-25T10:19:25;24.10;25.90
82039;DHT22;71610;42.628;23.378;2024-01-25T10:21:51;24.10;26.40
82039;DHT22;71610;42.628;23.378;2024-01-25T10:24:16;24.10;27.40
82039;DHT22;71610;42.628;23.378;2024-01-25T10:26:42;24.10;28.10
82039;DHT22;71610;42.628;23.378;2024-01-25T10:29:08;24.10;27.80
82039;DHT22;71610;42.628;23.378;2024-01-25T10:31:38;24.00;27.00
82039;DHT22;71610;42.628;23.378;2024-01-25T10:34:09;24.00;26.20
82039;DHT22;71610;42.628;23.378;2024-01-25T10:36:38;23.90;25.70
82039;DHT22;71610;42.628;23.378;2024-01-25T10:39:04;23.90;25.50
82039;DHT22;71610;42.628;23.378;2024-01-25T10:41:31;23.90;25.50
82039;DHT22;71610;42.628;23.378;2024-01-25T10:43:58;23.80;25.60
82039;DHT22;71610;42.628;23.378;2024-01-25T10:46:24;23.90;25.60
82039;DHT22;71610;42.628;23.378;2024-01-25T10:48:51;23.90;25.90
82039;DHT22;71610;42.628;23.378;2024-01-25T10:51:17;23.90;26.00
82039;DHT22;71610;42.628;23.378;2024-01-25T10:53:46;23.90;26.10
82039;DHT22;71610;42.628;23.378;2024-01-25T10:56:12;23.90;26.00
82039;DHT22;71610;42.628;23.378;2024-01-25T10:58:41;23.90;25.80
82039;DHT22;71610;42.628;23.378;2024-01-25T11:01:10;23.90;25.60
82039;DHT22;71610;42.628;23.378;2024-01-25T11:03:40;23.90;25.40
82039;DHT22;71610;42.628;23.378;2024-01-25T11:06:11;23.90;25.40
82039;DHT22;71610;42.628;23.378;2024-01-25T11:08:38;23.90;25.50
82039;DHT22;71610;42.628;23.378;2024-01-25T11:11:08;23.90;25.50
82039;DHT22;71610;42.628;23.378;2024-01-25T11:13:38;23.90;25.60
82039;DHT22;71610;42.628;23.378;2024-01-25T11:16:18;23.90;25.60
82039;DHT22;71610;42.628;23.378;2024-01-25T11:18:54;24.00;25.80
82039;DHT22;71610;42.628;23.378;2024-01-25T11:21:28;23.90;25.50
82039;DHT22;71610;42.628;23.378;2024-01-25T11:24:01;23.90;25.40
82039;DHT22;71610;42.628;23.378;2024-01-25T11:26:27;23.90;25.00
82039;DHT22;71610;42.628;23.378;2024-01-25T11:28:53;24.00;25.00
82039;DHT22;71610;42.628;23.378;2024-01-25T11:31:19;23.90;25.00
82039;DHT22;71610;42.628;23.378;2024-01-25T11:33:45;24.00;25.00
82039;DHT22;71610;42.628;23.378;2024-01-25T11:36:11;24.00;25.10
82039;DHT22;71610;42.628;23.378;2024-01-25T11:38:37;24.00;25.20
82039;DHT22;71610;42.628;23.378;2024-01-25T11:41:02;24.00;25.30
82039;DHT22;71610;42.628;23.378;2024-01-25T11:43:28;24.00;25.20
82039;DHT22;71610;42.628;23.378;2024-01-25T11:45:54;23.90;25.10
82039;DHT22;71610;42.628;23.378;2024-01-25T11:48:20;24.00;25.00
82039;DHT22;71610;42.628;23.378;2024-01-25T11:50:46;23.90;25.00
82039;DHT22;71610;42.628;23.378;2024-01-25T11:53:11;24.00;25.00
82039;DHT22;71610;42.628;23.378;2024-01-25T11:55:37;23.90;25.10
82039;DHT22;71610;42.628;23.378;2024-01-25T11:58:03;24.00;25.20
82039;DHT22;71610;42.628;23.378;2024-01-25T12:00:29;24.00;25.40
82039;DHT22;71610;42.628;23.378;2024-01-25T12:02:55;24.00;25.60
82039;DHT22;71610;42.628;23.378;2024-01-25T12:05:21;23.90;25.70
82039;DHT22;71610;42.628;23.378;2024-01-25T12:07:47;24.00;25.80
82039;DHT22;71610;42.628;23.378;2024-01-25T12:10:16;24.00;25.80
82039;DHT22;71610;42.628;23.378;2024-01-25T12:12:43;24.00;25.90
82039;DHT22;71610;42.628;23.378;2024-01-25T12:15:08;24.00;26.00
82039;DHT22;71610;42.628;23.378;2024-01-25T12:17:35;24.00;26.10
82039;DHT22;71610;42.628;23.378;2024-01-25T12:20:05;24.00;27.00
82039;DHT22;71610;42.628;23.378;2024-01-25T12:22:36;24.00;26.20
82039;DHT22;71610;42.628;23.378;2024-01-25T12:25:07;24.00;26.30
82039;DHT22;71610;42.628;23.378;2024-01-25T12:27:33;24.00;26.40
82039;DHT22;71610;42.628;23.378;2024-01-25T12:29:59;24.00;26.50
82039;DHT22;71610;42.628;23.378;2024-01-25T12:32:25;24.00;26.60
82039;DHT22;71610;42.628;23.378;2024-01-25T12:34:59;24.00;26.60
82039;DHT22;71610;42.628;23.378;2024-01-25T12:37:29;24.10;26.70
82039;DHT22;71610;42.628;23.378;2024-01-25T12:39:55;24.10;26.90
82039;DHT22;71610;42.628;23.378;2024-01-25T12:42:21;24.10;27.00
82039;DHT22;71610;42.628;23.378;2024-01-25T12:44:48;24.10;27.20
82039;DHT22;71610;42.628;23.378;2024-01-25T12:47:14;24.10;27.30
82039;DHT22;71610;42.628;23.378;2024-01-25T12:49:43;24.10;27.30
82039;DHT22;71610;42.628;23.378;2024-01-25T12:52:10;24.10;27.30
82039;DHT22;71610;42.628;23.378;2024-01-25T12:54:36;24.10;27.30
82039;DHT22;71610;42.628;23.378;2024-01-25T12:57:03;24.10;27.30
82039;DHT22;71610;42.628;23.378;2024-01-25T12:59:29;24.10;27.20
82039;DHT22;71610;42.628;23.378;2024-01-25T13:01:55;24.10;27.20
82039;DHT22;71610;42.628;23.378;2024-01-25T13:04:20;24.10;27.30
82039;DHT22;71610;42.628;23.378;2024-01-25T13:06:48;24.10;27.30
82039;DHT22;71610;42.628;23.378;2024-01-25T13:09:14;24.10;27.40
82039;DHT22;71610;42.628;23.378;2024-01-25T13:11:41;24.10;27.40
82039;DHT22;71610;42.628;23.378;2024-01-25T13:14:07;24.10;27.40
82039;DHT22;71610;42.628;23.378;2024-01-25T13:16:33;24.10;27.50
82039;DHT22;71610;42.628;23.378;2024-01-25T13:18:59;24.10;27.50
82039;DHT22;71610;42.628;23.378;2024-01-25T13:21:25;24.10;27.50
82039;DHT22;71610;42.628;23.378;2024-01-25T13:23:50;24.10;27.50
82039;DHT22;71610;42.628;23.378;2024-01-25T13:26:16;24.20;27.60
82039;DHT22;71610;42.628;23.378;2024-01-25T13:28:42;24.10;27.50
82039;DHT22;71610;42.628;23.378;2024-01-25T13:31:07;24.10;27.60
82039;DHT22;71610;42.628;23.378;2024-01-25T13:33:33;24.10;27.70
82039;DHT22;71610;42.628;23.378;2024-01-25T13:35:59;24.10;27.80
82039;DHT22;71610;42.628;23.378;2024-01-25T13:38:25;24.10;28.20
82039;DHT22;71610;42.628;23.378;2024-01-25T13:40:50;24.20;28.40
82039;DHT22;71610;42.628;23.378;2024-01-25T13:43:16;24.10;28.40
82039;DHT22;71610;42.628;23.378;2024-01-25T13:45:42;24.10;28.40
82039;DHT22;71610;42.628;23.378;2024-01-25T13:48:08;24.10;28.30
82039;DHT22;71610;42.628;23.378;2024-01-25T13:50:34;24.10;28.40
82039;DHT22;71610;42.628;23.378;2024-01-25T13:52:59;24.10;28.30
82039;DHT22;71610;42.628;23.378;2024-01-25T13:55:25;24.20;28.30
82039;DHT22;71610;42.628;23.378;2024-01-25T13:57:51;24.20;28.40
82039;DHT22;71610;42.628;23.378;2024-01-25T14:00:18;24.20;28.40
82039;DHT22;71610;42.628;23.378;2024-01-25T14:02:44;24.20;28.30
82039;DHT22;71610;42.628;23.378;2024-01-25T14:05:11;24.20;28.30
82039;DHT22;71610;42.628;23.378;2024-01-25T14:07:37;24.20;28.40
82039;DHT22;71610;42.628;23.378;2024-01-25T14:10:03;24.20;28.50
82039;DHT22;71610;42.628;23.378;2024-01-25T14:12:29;24.20;28.60
82039;DHT22;71610;42.628;23.378;2024-01-25T14:14:55;24.20;28.50
82039;DHT22;71610;42.628;23.378;2024-01-25T14:17:21;24.20;28.50
82039;DHT22;71610;42.628;23.378;2024-01-25T14:19:48;24.20;28.60
82039;DHT22;71610;42.628;23.378;2024-01-25T14:22:13;24.20;28.60
82039;DHT22;71610;42.628;23.378;2024-01-25T14:24:39;24.20;28.60
82039;DHT22;71610;42.628;23.378;2024-01-25T14:27:05;24.20;29.40
82039;DHT22;71610;42.628;23.378;2024-01-25T14:29:30;24.20;28.50
82039;DHT22;71610;42.628;23.378;2024-01-25T14:31:59;24.20;28.40
82039;DHT22;71610;42.628;23.378;2024-01-25T14:34:25;24.20;28.40
82039;DHT22;71610;42.628;23.378;2024-01-25T14:36:51;24.20;28.40
82039;DHT22;71610;42.628;23.378;2024-01-25T14:39:17;24.20;28.60
82039;DHT22;71610;42.628;23.378;2024-01-25T14:41:44;24.20;28.60
82039;DHT22;71610;42.628;23.378;2024-01-25T14:44:10;24.20;28.60
82039;DHT22;71610;42.628;23.378;2024-01-25T14:46:35;24.20;28.60
82039;DHT22;71610;42.628;23.378;2024-01-25T14:49:02;24.20;28.60
82039;DHT22;71610;42.628;23.378;2024-01-25T14:51:28;24.20;28.50
82039;DHT22;71610;42.628;23.378;2024-01-25T14:53:54;24.20;28.70
82039;DHT22;71610;42.628;23.378;2024-01-25T14:56:19;24.20;28.70
82039;DHT22;71610;42.628;23.378;2024-01-25T14:58:45;24.20;28.70
82039;DHT22;71610;42.628;23.378;2024-01-25T15:01:17;24.20;28.70
82039;DHT22;71610;42.628;23.378;2024-01-25T15:03:44;24.20;28.60
82039;DHT22;71610;42.628;23.378;2024-01-25T15:06:11;24.20;28.70
82039;DHT22;71610;42.628;23.378;2024-01-25T15:08:37;24.20;28.70
82039;DHT22;71610;42.628;23.378;2024-01-25T15:11:03;24.20;28.80
82039;DHT22;71610;42.628;23.378;2024-01-25T15:13:29;24.20;28.80